Blue Oak Ranch Reserve, California Weather observations

Data are for 10 minute period ending at time listed.
 Day   Time   Solar   Ave.   Ave.  Ave.  Vector  Max.   Baro.   Total    
  of    of     Rad.   Air    Rel.  Wind   Wind   Wind  Press.  Precip.   
Year   Day            Temp.  Hum.  Speed  Dir.   Gust                    
2015   (PST)  Kw/m2    F      %     mph   deg.    mph    mb.     in.     
-------------------------------------------------------------------------
  28   12:20   0.58   60.1    58    6.3   267    10.7   954.7    0.00 
  28   12:30   0.55   60.2    58    4.6   272     7.9   954.6    0.00 
  28   12:40   0.59   61.2    58    4.5   236     9.2   954.4    0.00 
  28   12:50   0.59   61.7    57    4.6   245     8.2   954.2    0.00 
  28   13:00   0.40   60.5    60    6.0   234     9.4   954.2    0.00 
  28   13:10   0.45   59.7    61    5.5   241     8.7   954.2    0.00 
  28   13:20   0.51   59.8    60    5.6   244     9.9   954.1    0.00 
  28   13:30   0.54   60.3    59    4.1   241     7.5   953.9    0.00 
  28   13:40   0.52   60.8    57    5.7   262    10.5   953.9    0.00 
  28   13:50   0.46   60.5    57    5.9   276    11.0   953.9    0.00 
  28   14:00   0.50   61.0    55    5.7   277     9.3   953.9    0.00 
  28   14:10   0.51   61.5    53    5.5   270    10.8   953.8    0.00 
  28   14:20   0.48   61.3    53    5.7   279    11.0   953.7    0.00 
  28   14:30   0.42   61.5    52    7.5   279    11.5   953.6    0.00 
  28   14:40   0.33   60.8    50    7.1   281    12.4   953.6    0.00 
  28   14:50   0.40   61.9    48    6.3   277    10.0   953.6    0.00 
  28   15:00   0.35   61.9    46    7.2   279    10.9   953.6    0.00 
  28   15:10   0.21   61.1    48    7.1   274    11.0   953.5    0.00 
  28   15:20   0.22   61.2    48    5.5   270     8.2   953.3    0.00 
  28   15:30   0.26   61.1    49    5.1   262     9.6   953.2    0.00 
  28   15:40   0.25   61.1    50    5.3   246     9.3   953.0    0.00 
  28   15:50   0.17   60.7    49    4.2   243     8.0   952.9    0.00 
  28   16:00   0.22   60.7    50    4.5   254     7.3   952.8    0.00 
  28   16:10   0.26   61.2    48    4.6   237     7.2   952.7    0.00 
  28   16:20   0.23   62.1    45    2.8   214     6.7   952.8    0.00 
  28   16:30   0.17   61.6    45    3.0   186     6.3   952.9    0.00 
  28   16:40   0.13   59.8    50    3.0   158     5.8   953.0    0.00 
  28   16:50   0.07   59.3    49    1.5   157     3.9   953.0    0.00 
  28   17:00   0.06   58.8    50    2.0   127     3.7   953.0    0.00 
  28   17:10   0.04   57.8    52    0.4   145     2.3   952.9    0.00 
  28   17:20   0.02   56.8    54    0.1    82     0.7   952.8    0.00 
  28   17:30   0.01   55.0    58    1.0    53     2.8   952.8    0.00 
  28   17:40   0.01   53.0    62    1.0    40     2.4   952.8    0.00 
  28   17:50   0.00   52.1    64    1.2   275     2.4   952.9    0.00 
  28   18:00   0.00   51.1    65    1.0    30     2.0   953.0    0.00 
  28   18:10   0.00   49.9    63    1.0    74     2.3   953.1    0.00 
  28   18:20   0.00   48.8    61    0.7    47     1.7   953.3    0.00 
  28   18:30   0.00   48.2    62    0.0    42     1.4   953.4    0.00 
  28   18:40   0.00   47.9    61    0.0     0     0.0   953.5    0.00 
  28   18:50   0.00   47.8    61    0.0   238     0.9   953.5    0.00 
  28   19:00   0.00   47.3    63    0.3   302     1.8   953.5    0.00 
  28   19:10   0.00   47.6    63    1.0   323     2.2   953.4    0.00 
  28   19:20   0.00   46.7    63    1.6   296     3.5   953.4    0.00 
  28   19:30   0.00   46.5    60    0.3   350     1.2   953.4    0.00 
  28   19:40   0.00   46.5    58    0.6    70     1.8   953.6    0.00 
  28   19:50   0.00   46.1    59    1.8   329     3.2   953.7    0.00 
  28   20:00   0.00   45.5    60    0.7   311     2.8   953.7    0.00 
  28   20:10   0.00   46.7    54    0.3   355     1.8   953.7    0.00 
  28   20:20   0.00   45.9    58    0.4   117     1.7   953.7    0.00 
  28   20:30   0.00   45.7    57    1.2    34     2.9   953.7    0.00 
  28   20:40   0.00   44.5    60    1.4   301     3.2   953.7    0.00 
  28   20:50   0.00   44.6    61    0.5   318     1.2   953.6    0.00 
  28   21:00   0.00   44.9    60    0.7   288     1.5   953.6    0.00 
  28   21:10   0.00   45.0    59    1.1   294     2.1   953.7    0.00 
  28   21:20   0.00   44.2    61    0.0   262     0.7   953.7    0.00 
  28   21:30   0.00   44.4    61    1.0    60     2.4   953.7    0.00 
  28   21:40   0.00   44.2    63    0.4   314     1.8   953.7    0.00 
  28   21:50   0.00   44.4    62    1.0   291     3.2   953.6    0.00 
  28   22:00   0.00   43.8    65    1.4   305     3.7   953.6    0.00 
  28   22:10   0.00   44.0    63    0.0   186     0.5   953.5    0.00 
  28   22:20   0.00   44.5    62    0.3   159     1.0   953.5    0.00 
  28   22:30   0.00   44.2    64    0.2   263     1.0   953.5    0.00 
  28   22:40   0.00   44.2    63    0.2   308     1.2   953.5    0.00 
  28   22:50   0.00   44.3    63    0.5    89     2.0   953.6    0.00 
  28   23:00   0.00   44.1    63    0.0     0     0.0   953.6    0.00 
  28   23:10   0.00   43.8    64    0.3   291     1.3   953.6    0.00 
  28   23:20   0.00   43.7    64    0.4   282     2.2   953.5    0.00 
  28   23:30   0.00   43.3    65    0.4   282     2.4   953.6    0.00 
  28   23:40   0.00   43.2    64    0.1   296     1.0   953.6    0.00 
  28   23:50   0.00   43.3    64    0.1    46     0.7   953.7    0.00 
  29    0:00   0.00   43.4    64    0.0    53     0.4   953.6    0.00 
  29    0:10   0.00   43.2    64    0.6   351     1.8   953.5    0.00 
  29    0:20   0.00   42.1    67    0.8   276     1.7   953.4    0.00 
  29    0:30   0.00   42.2    66    0.4   116     1.2   953.4    0.00 
  29    0:40   0.00   42.2    65    0.1    83     0.9   953.3    0.00 
  29    0:50   0.00   42.1    66    0.2   277     1.4   953.2    0.00 
  29    1:00   0.00   41.3    68    0.1   259     0.9   953.1    0.00 
  29    1:10   0.00   42.1    66    0.3   334     1.7   953.1    0.00 
  29    1:20   0.00   42.0    66    0.6   292     2.1   953.0    0.00 
  29    1:30   0.00   42.0    65    0.2   302     0.9   953.0    0.00 
  29    1:40   0.00   42.4    63    0.2   280     1.1   953.0    0.00 
  29    1:50   0.00   42.2    64    0.1   258     0.8   952.9    0.00 
  29    2:00   0.00   42.6    62    0.0     0     0.0   952.9    0.00 
  29    2:10   0.00   42.7    61    0.5   283     1.2   952.9    0.00 
  29    2:20   0.00   42.5    62    0.2    16     0.9   952.9    0.00 
  29    2:30   0.00   42.5    62    0.6   280     1.9   952.9    0.00 
  29    2:40   0.00   41.8    62    0.4   294     1.4   952.8    0.00 
  29    2:50   0.00   42.3    60    0.4   331     1.3   952.7    0.00 
  29    3:00   0.00   42.7    59    0.0   343     0.5   952.6    0.00 
  29    3:10   0.00   43.2    58    1.1   273     2.3   952.5    0.00 
  29    3:20   0.00   42.5    60    0.8   342     1.7   952.4    0.00 
  29    3:30   0.00   42.5    59    0.2    73     1.3   952.3    0.00 
  29    3:40   0.00   42.6    58    0.2   235     1.2   952.2    0.00 
  29    3:50   0.00   43.1    57    0.0   324     0.4   952.2    0.00 
  29    4:00   0.00   42.3    59    0.4   325     1.1   952.2    0.00 
  29    4:10   0.00   41.8    61    1.1   299     1.8   952.2    0.00 
  29    4:20   0.00   41.7    59    0.1   313     1.2   952.2    0.00 
  29    4:30   0.00   42.4    58    1.9    73     3.1   952.2    0.00 
  29    4:40   0.00   41.7    62    1.0    10     2.3   952.1    0.00 
  29    4:50   0.00   40.9    63    2.1   302     2.5   951.9    0.00 
  29    5:00   0.00   41.5    60    0.7   302     1.8   951.9    0.00 
  29    5:10   0.00   42.4    58    0.8   308     2.0   951.9    0.00 
  29    5:20   0.00   43.0    56    0.4   103     1.2   951.9    0.00 
  29    5:30   0.00   44.1    55    0.5   245     1.5   951.9    0.00 
  29    5:40   0.00   43.6    57    1.6    65     2.8   951.9    0.00 
  29    5:50   0.00   42.9    59    0.6   317     1.4   951.9    0.00 
  29    6:00   0.00   42.4    61    0.5   297     1.5   951.9    0.00 
  29    6:10   0.00   42.9    59    0.7   335     2.0   951.9    0.00 
  29    6:20   0.00   43.4    58    1.3   294     2.8   951.9    0.00 
  29    6:30   0.00   43.4    58    0.8   304     2.8   952.0    0.00 
  29    6:40   0.00   43.4    59    0.5   103     1.2   952.0    0.00 
  29    6:50   0.00   42.8    61    0.4   291     1.1   952.1    0.00 
  29    7:00   0.00   42.6    61    0.7   295     1.8   952.1    0.00 
  29    7:10   0.01   43.3    63    0.6   288     2.2   952.2    0.00 
  29    7:20   0.01   43.2    67    1.0    48     2.6   952.3    0.00 
  29    7:30   0.01   42.9    68    1.6    56     2.9   952.4    0.00 
  29    7:40   0.01   43.1    68    0.4   288     2.3   952.4    0.00 
  29    7:50   0.02   43.0    68    1.4   294     2.4   952.3    0.00 
  29    8:00   0.07   44.1    67    0.7   284     1.8   952.4    0.00 
  29    8:10   0.12   47.0    63    0.5   114     1.2   952.4    0.00 
  29    8:20   0.15   50.1    60    0.0   109     0.6   952.5    0.00 
  29    8:30   0.17   51.8    58    0.1   254     0.7   952.5    0.00 
  29    8:40   0.20   55.3    53    0.6   267     1.5   952.4    0.00 
  29    8:50   0.23   58.3    49    0.1   138     0.9   952.2    0.00 
  29    9:00   0.26   61.1    46    0.0   136     0.1   952.1    0.00 
  29    9:10   0.29   61.9    49    0.8    90     1.7   952.1    0.00 
  29    9:20   0.31   62.1    46    0.9   124     1.9   952.1    0.00 
  29    9:30   0.34   62.3    44    1.4   151     3.0   952.1    0.00 
  29    9:40   0.36   63.5    41    1.8   240     3.4   952.2    0.00 
  29    9:50   0.39   64.5    39    2.6   231     3.7   952.3    0.00 
  29   10:00   0.41   64.5    41    3.6   236     5.1   952.4    0.00 
  29   10:10   0.43   63.2    46    3.9   239     5.6   952.5    0.00 
  29   10:20   0.45   63.5    45    2.3   246     4.0   952.6    0.00 
  29   10:30   0.47   64.2    43    2.3   235     4.0   952.6    0.00 
  29   10:40   0.49   64.3    42    2.9   232     5.3   952.6    0.00 
  29   10:50   0.51   64.7    40    2.9   247     5.0   952.6    0.00 
  29   11:00   0.52   65.6    41    3.3   249     4.7   952.6    0.00 
  29   11:10   0.53   64.6    43    3.6   244     5.7   952.6    0.00 
  29   11:20   0.54   65.7    42    3.5   232     5.3   952.5    0.00 
  29   11:30   0.55   65.5    44    4.7   239     6.6   952.4    0.00 
  29   11:40   0.57   65.2    44    5.8   234     8.2   952.5    0.00 
  29   11:50   0.57   64.5    47    5.2   232     8.1   952.3    0.00 
  29   12:00   0.58   64.3    50    5.0   230     7.7   952.3    0.00 
  29   12:10   0.58   64.5    48    5.3   227     7.2   952.1    0.00 

Return to Blue Oak Ranch Reserve graphs page.


Western Regional Climate Center,wrcc@dri.edu